Time;durP1;ratioP1;P1;durP2;ratioP2;P2;SDS_P1;SDS_P2;PMS_P1;PMS_P2;Temp;Humidity;BMP_temperature;BMP_pressure;BME280_temperature;BME280_humidity;BME280_pressure;Samples;Min_cycle;Max_cycle;Signal;HPM_P1;HPM_P2
2022/06/01 00:00:33;;;;;;;77.75;40.58;;;10.10;99.90;;;;;;6217319;23;20010;-79
2022/06/01 00:03:00;;;;;;;78.88;40.40;;;10.10;99.90;;;;;;6216807;23;20065;-79
2022/06/01 00:05:27;;;;;;;66.55;38.00;;;10.10;99.90;;;;;;6216912;23;20014;-79
2022/06/01 00:07:54;;;;;;;65.55;37.28;;;10.10;99.80;;;;;;6216466;23;20037;-81
2022/06/01 00:10:21;;;;;;;72.80;39.13;;;10.10;99.80;;;;;;6216738;23;20025;-81
2022/06/01 00:12:48;;;;;;;107.68;42.53;;;10.10;99.70;;;;;;6217182;23;20009;-80
2022/06/01 00:15:19;;;;;;;78.97;39.80;;;10.10;99.70;;;;;;6216604;23;20066;-80
2022/06/01 00:17:46;;;;;;;59.85;35.10;;;10.10;99.80;;;;;;6216320;23;20009;-81
2022/06/01 00:20:14;;;;;;;63.72;36.60;;;10.10;99.80;;;;;;6216996;23;20016;-79
2022/06/01 00:22:42;;;;;;;74.57;36.20;;;10.10;99.60;;;;;;6216314;23;20013;-79
2022/06/01 00:25:10;;;;;;;52.42;32.22;;;10.10;99.50;;;;;;6216773;23;20054;-79
2022/06/01 00:27:37;;;;;;;81.38;35.40;;;10.10;99.40;;;;;;6216344;23;20017;-79
2022/06/01 00:30:07;;;;;;;77.22;36.20;;;10.10;99.30;;;;;;6216372;23;20016;-79
2022/06/01 00:32:34;;;;;;;89.30;37.53;;;10.10;99.40;;;;;;6215192;23;20057;-79
2022/06/01 00:35:02;;;;;;;86.18;33.78;;;10.10;99.50;;;;;;6217131;23;20033;-79
2022/06/01 00:37:29;;;;;;;66.18;31.65;;;10.10;99.60;;;;;;6216313;23;20032;-80
2022/06/01 00:39:56;;;;;;;70.43;31.00;;;10.00;99.60;;;;;;6216505;23;20030;-79
2022/06/01 00:42:27;;;;;;;101.38;34.00;;;10.00;99.40;;;;;;6216390;23;20020;-80
2022/06/01 00:44:54;;;;;;;44.65;23.75;;;10.00;99.90;;;;;;6217122;23;20017;-80
2022/06/01 00:47:22;;;;;;;56.75;27.95;;;10.00;99.90;;;;;;6216944;23;20069;-80
2022/06/01 00:50:15;;;;;;;36.15;20.45;;;10.00;99.90;;;;;;6216932;23;20022;-80
2022/06/01 00:52:46;;;;;;;42.63;22.00;;;9.90;99.90;;;;;;6219917;23;20014;-80
2022/06/01 00:55:18;;;;;;;30.33;19.17;;;9.90;99.90;;;;;;6217079;23;20021;-80
2022/06/01 00:57:48;;;;;;;32.78;16.63;;;9.90;99.80;;;;;;6216073;23;20081;-80
2022/06/01 01:00:22;;;;;;;35.70;18.88;;;9.80;99.40;;;;;;6216494;23;20017;-80
2022/06/01 01:02:51;;;;;;;83.13;24.55;;;9.70;99.40;;;;;;6216981;23;20073;-80
2022/06/01 01:05:19;;;;;;;45.50;22.48;;;9.80;99.70;;;;;;6216591;23;20005;-81
2022/06/01 01:07:46;;;;;;;49.08;23.58;;;9.80;99.90;;;;;;6216509;23;20013;-80
2022/06/01 01:10:14;;;;;;;50.00;23.33;;;9.80;99.90;;;;;;6216935;23;20057;-80
2022/06/01 01:12:57;;;;;;;38.28;19.33;;;9.80;99.90;;;;;;6217136;23;20022;-80
2022/06/01 01:15:38;;;;;;;42.47;20.25;;;9.80;99.90;;;;;;6216886;23;20012;-80
2022/06/01 01:18:10;;;;;;;35.20;19.73;;;9.70;99.80;;;;;;6217107;23;20018;-80
2022/06/01 01:20:55;;;;;;;105.65;22.98;;;9.70;99.90;;;;;;6217031;23;20044;-80
2022/06/01 01:23:53;;;;;;;98.93;23.92;;;9.70;99.90;;;;;;6215527;23;20002;-80
2022/06/01 01:26:23;;;;;;;41.60;19.33;;;9.70;99.90;;;;;;6219094;23;20028;-80
2022/06/01 01:28:50;;;;;;;44.72;21.13;;;9.60;99.90;;;;;;6216751;23;20001;-80
2022/06/01 01:31:20;;;;;;;41.30;21.00;;;9.60;99.90;;;;;;6216804;23;20006;-80
2022/06/01 01:33:48;;;;;;;102.05;26.08;;;9.60;99.90;;;;;;6216343;23;20035;-80
2022/06/01 01:36:19;;;;;;;45.83;21.50;;;9.70;99.90;;;;;;6216074;23;20040;-80
2022/06/01 01:39:05;;;;;;;38.10;19.80;;;9.60;99.90;;;;;;6217417;23;20021;-80
2022/06/01 01:41:45;;;;;;;57.30;21.75;;;9.60;99.90;;;;;;6216843;23;20392;-80
2022/06/01 01:44:32;;;;;;;142.13;26.27;;;9.60;99.90;;;;;;6217247;23;20029;-80
2022/06/01 01:46:58;;;;;;;62.83;20.75;;;9.60;99.90;;;;;;6216863;23;20013;-80
2022/06/01 01:49:32;;;;;;;54.85;20.88;;;9.60;99.90;;;;;;6214883;23;20025;-80
2022/06/01 01:52:03;;;;;;;59.10;21.85;;;9.60;99.90;;;;;;6216703;23;20013;-80
2022/06/01 01:54:54;;;;;;;60.13;22.38;;;9.60;99.90;;;;;;6217055;23;20005;-80
2022/06/01 01:57:42;;;;;;;55.38;23.02;;;9.60;99.90;;;;;;6216300;23;20068;-80
2022/06/01 02:00:18;;;;;;;63.30;23.58;;;9.60;99.90;;;;;;6216854;23;20033;-80
2022/06/01 02:03:00;;;;;;;95.30;28.33;;;9.70;99.90;;;;;;6216845;23;20030;-80
2022/06/01 02:06:04;;;;;;;68.63;26.65;;;9.70;99.90;;;;;;6216890;23;20061;-80
2022/06/01 02:08:32;;;;;;;64.80;27.50;;;9.70;99.90;;;;;;6215310;23;20002;-80
2022/06/01 02:13:58;;;;;;;211.13;34.33;;;9.70;99.90;;;;;;6217187;23;20037;-80
2022/06/01 02:16:28;;;;;;;62.58;27.55;;;9.70;99.90;;;;;;6215741;23;20020;-80
2022/06/01 02:18:58;;;;;;;67.05;27.17;;;9.70;99.90;;;;;;6216823;23;20001;-80
2022/06/01 02:21:27;;;;;;;68.03;27.42;;;9.70;99.90;;;;;;6215992;23;20028;-80
2022/06/01 02:23:57;;;;;;;82.32;29.38;;;9.70;99.90;;;;;;6215836;23;20062;-80
2022/06/01 02:26:25;;;;;;;71.13;27.92;;;9.70;99.90;;;;;;6216901;23;20048;-80
2022/06/01 02:29:00;;;;;;;61.33;27.02;;;9.70;99.90;;;;;;6216122;23;20010;-80
2022/06/01 02:31:29;;;;;;;65.60;26.25;;;9.70;99.90;;;;;;6216777;23;20029;-80
2022/06/01 02:33:58;;;;;;;77.72;28.25;;;9.60;99.90;;;;;;6215232;23;20017;-80
2022/06/01 02:36:26;;;;;;;50.92;23.77;;;9.60;99.90;;;;;;6216440;23;20017;-80
2022/06/01 02:38:56;;;;;;;187.05;29.85;;;9.60;99.90;;;;;;6215439;23;20010;-80
2022/06/01 02:44:08;;;;;;;164.82;26.88;;;9.50;99.90;;;;;;6216266;23;20008;-79
2022/06/01 02:46:36;;;;;;;36.10;17.92;;;9.40;99.90;;;;;;6216479;23;20046;-80
2022/06/01 02:49:04;;;;;;;41.90;16.00;;;9.40;99.90;;;;;;6215749;23;20033;-79
2022/06/01 02:51:32;;;;;;;31.42;15.70;;;9.30;99.90;;;;;;6215804;23;20025;-80
2022/06/01 02:53:59;;;;;;;35.35;14.70;;;9.30;99.90;;;;;;6215593;23;20013;-80
2022/06/01 02:56:25;;;;;;;78.30;17.92;;;9.30;99.90;;;;;;6215778;23;20001;-80
2022/06/01 02:58:53;;;;;;;54.35;15.43;;;9.20;99.90;;;;;;6216308;23;20018;-80
2022/06/01 03:01:20;;;;;;;55.53;15.32;;;9.20;99.90;;;;;;6217234;23;20010;-80
2022/06/01 03:03:47;;;;;;;38.03;13.85;;;9.20;99.90;;;;;;6217596;23;20002;-80
2022/06/01 03:06:15;;;;;;;30.13;13.63;;;9.10;99.90;;;;;;6217076;23;20025;-80
2022/06/01 03:08:42;;;;;;;36.88;14.32;;;9.10;99.90;;;;;;6215924;23;21748;-79
2022/06/01 03:11:09;;;;;;;27.48;13.75;;;9.00;99.90;;;;;;6217120;23;20025;-80
2022/06/01 03:13:36;;;;;;;31.00;14.23;;;9.00;99.90;;;;;;6216804;23;20088;-80
2022/06/01 03:16:03;;;;;;;85.57;18.13;;;9.00;99.90;;;;;;6217078;23;20006;-80
2022/06/01 03:18:31;;;;;;;41.25;15.02;;;9.00;99.90;;;;;;6217261;23;20268;-80
2022/06/01 03:20:59;;;;;;;29.20;15.75;;;9.00;99.90;;;;;;6216993;23;20016;-79
2022/06/01 03:23:27;;;;;;;39.33;15.38;;;9.00;99.90;;;;;;6216443;23;20001;-79
2022/06/01 03:25:55;;;;;;;33.50;14.18;;;9.00;99.90;;;;;;6217142;23;20017;-79
2022/06/01 03:28:22;;;;;;;32.15;14.40;;;9.00;99.90;;;;;;6217640;23;20001;-79
2022/06/01 03:30:50;;;;;;;55.72;15.82;;;8.90;99.90;;;;;;6216910;23;20017;-80
2022/06/01 03:33:17;;;;;;;75.10;17.83;;;9.00;99.90;;;;;;6217044;23;20005;-80
2022/06/01 03:35:44;;;;;;;36.13;16.10;;;9.00;99.90;;;;;;6216648;23;20009;-80
2022/06/01 03:38:12;;;;;;;29.25;15.25;;;9.00;99.90;;;;;;6216834;23;20017;-79
2022/06/01 03:40:39;;;;;;;37.03;15.25;;;9.00;99.90;;;;;;6216836;23;20018;-79
2022/06/01 03:43:06;;;;;;;58.88;17.55;;;9.00;99.90;;;;;;6217277;23;20009;-79
2022/06/01 03:48:19;;;;;;;35.03;15.45;;;9.10;99.90;;;;;;6217234;23;20045;-80
2022/06/01 03:50:45;;;;;;;38.33;14.75;;;9.10;99.90;;;;;;6217147;23;20012;-79
2022/06/01 03:53:14;;;;;;;22.48;11.77;;;9.20;99.90;;;;;;6216717;23;21729;-80
2022/06/01 03:55:42;;;;;;;23.40;12.68;;;9.20;99.90;;;;;;6216359;23;20010;-79
2022/06/01 03:58:14;;;;;;;19.48;11.25;;;9.20;99.90;;;;;;6216841;23;20032;-79
2022/06/01 04:00:41;;;;;;;23.98;12.13;;;9.30;99.90;;;;;;6216831;23;20041;-79
2022/06/01 04:03:08;;;;;;;24.55;13.00;;;9.30;99.90;;;;;;6216384;23;20044;-80
2022/06/01 04:05:35;;;;;;;46.15;15.35;;;9.30;99.90;;;;;;6216879;23;20002;-79
2022/06/01 04:08:03;;;;;;;33.47;16.95;;;9.40;99.90;;;;;;6216939;23;20002;-80
2022/06/01 04:10:30;;;;;;;41.95;18.27;;;9.40;99.90;;;;;;6216806;23;20013;-79
2022/06/01 04:12:58;;;;;;;63.20;21.00;;;9.50;99.90;;;;;;6216825;23;20061;-80
2022/06/01 04:15:27;;;;;;;68.63;21.85;;;9.50;99.90;;;;;;6217111;23;20017;-79
2022/06/01 04:17:54;;;;;;;44.75;20.30;;;9.50;99.90;;;;;;6216612;23;20013;-79
2022/06/01 04:20:21;;;;;;;41.85;20.85;;;9.60;99.90;;;;;;6216823;23;20018;-80
2022/06/01 04:22:48;;;;;;;33.28;20.02;;;9.60;99.90;;;;;;6215759;23;21432;-79
2022/06/01 04:25:17;;;;;;;40.83;20.70;;;9.70;99.90;;;;;;6216477;23;20040;-79
2022/06/01 04:27:45;;;;;;;39.42;21.42;;;9.60;99.90;;;;;;6216854;23;20013;-79
2022/06/01 04:30:15;;;;;;;40.05;20.02;;;9.60;99.90;;;;;;6217354;23;20005;-80
2022/06/01 04:32:44;;;;;;;38.67;19.58;;;9.60;99.90;;;;;;6215436;23;20017;-79
2022/06/01 04:35:11;;;;;;;36.15;19.75;;;9.60;99.90;;;;;;6217040;23;20033;-79
2022/06/01 04:37:38;;;;;;;38.08;20.40;;;9.60;99.90;;;;;;6216511;23;20028;-79
2022/06/01 04:40:09;;;;;;;34.90;20.90;;;9.60;99.80;;;;;;6217106;23;20037;-79
2022/06/01 04:42:36;;;;;;;48.03;21.75;;;9.50;99.80;;;;;;6216779;23;20006;-79
2022/06/01 04:45:03;;;;;;;36.15;19.42;;;9.50;99.70;;;;;;6216090;23;20009;-79
2022/06/01 04:47:30;;;;;;;39.92;20.67;;;9.50;99.60;;;;;;6216331;23;20017;-79
2022/06/01 04:49:57;;;;;;;34.60;19.35;;;9.40;99.70;;;;;;6217183;23;20014;-79
2022/06/01 04:52:24;;;;;;;41.60;19.75;;;9.40;99.50;;;;;;6216389;23;20006;-79
2022/06/01 04:54:51;;;;;;;40.63;21.02;;;9.40;99.50;;;;;;6217079;23;20017;-80
2022/06/01 04:57:18;;;;;;;38.13;20.55;;;9.30;99.60;;;;;;6216352;23;20005;-79
2022/06/01 04:59:45;;;;;;;42.67;20.23;;;9.40;99.90;;;;;;6216568;23;20018;-79
2022/06/01 05:02:12;;;;;;;74.05;23.83;;;9.40;99.90;;;;;;6216952;23;20005;-79
2022/06/01 05:04:40;;;;;;;48.53;21.70;;;9.40;99.90;;;;;;6215914;23;20057;-79
2022/06/01 05:07:07;;;;;;;51.78;20.25;;;9.40;99.90;;;;;;6214240;23;20028;-80
2022/06/01 05:09:42;;;;;;;67.18;22.70;;;9.40;99.90;;;;;;6216107;23;20021;-80
2022/06/01 05:12:30;;;;;;;144.18;26.58;;;9.50;99.90;;;;;;6211351;23;20064;-79
2022/06/01 05:14:57;;;;;;;52.63;21.92;;;9.50;99.90;;;;;;6216047;23;20016;-80
2022/06/01 05:17:23;;;;;;;98.95;25.05;;;9.50;99.90;;;;;;6240712;22;20014;-79
2022/06/01 05:19:50;;;;;;;54.42;22.08;;;9.60;99.90;;;;;;6215728;23;20010;-80
2022/06/01 05:22:17;;;;;;;64.38;22.95;;;9.60;99.90;;;;;;6216092;23;20033;-80
2022/06/01 05:24:50;;;;;;;28.60;17.52;;;9.70;99.90;;;;;;6215436;23;20013;-80
2022/06/01 05:27:17;;;;;;;103.00;20.02;;;9.70;99.90;;;;;;6215639;23;20010;-81
2022/06/01 05:29:43;;;;;;;29.90;14.07;;;9.70;99.90;;;;;;6215519;23;20014;-81
2022/06/01 05:32:11;;;;;;;18.73;11.93;;;9.70;99.90;;;;;;6215394;23;20001;-81
2022/06/01 05:34:38;;;;;;;19.23;11.73;;;9.70;99.90;;;;;;6215794;23;20010;-80
2022/06/01 05:37:05;;;;;;;17.17;11.98;;;9.70;99.60;;;;;;6215460;23;20049;-81
2022/06/01 05:39:31;;;;;;;21.45;11.65;;;9.70;99.20;;;;;;6214433;23;20045;-80
2022/06/01 05:41:58;;;;;;;18.58;11.73;;;9.70;99.00;;;;;;6215168;23;20002;-81
2022/06/01 05:44:29;;;;;;;17.35;11.15;;;9.70;98.80;;;;;;6215192;23;20033;-81
2022/06/01 05:46:58;;;;;;;18.88;11.52;;;9.70;98.80;;;;;;6209962;23;20021;-81
2022/06/01 05:49:26;;;;;;;18.77;10.95;;;9.60;98.70;;;;;;6208963;23;20005;-80
2022/06/01 05:51:53;;;;;;;17.88;11.35;;;9.70;98.70;;;;;;6216561;23;20024;-80
2022/06/01 05:54:20;;;;;;;14.13;10.40;;;9.70;98.70;;;;;;6215973;23;20261;-81
2022/06/01 05:56:47;;;;;;;18.63;11.57;;;9.70;98.20;;;;;;6239586;22;20005;-81
2022/06/01 05:59:15;;;;;;;20.00;11.50;;;9.80;98.10;;;;;;6214461;23;20445;-81
2022/06/01 06:01:42;;;;;;;16.90;10.95;;;9.90;98.20;;;;;;6213480;23;20010;-80
2022/06/01 06:04:19;;;;;;;15.13;10.73;;;9.90;98.10;;;;;;6213328;23;20013;-80
2022/06/01 06:07:06;;;;;;;16.40;10.23;;;10.00;97.80;;;;;;6214140;23;20031;-80
2022/06/01 06:09:33;;;;;;;14.80;9.48;;;10.10;97.70;;;;;;6212446;23;20037;-81
2022/06/01 06:12:00;;;;;;;13.73;9.32;;;10.20;97.50;;;;;;6213971;23;20001;-81
2022/06/01 06:14:27;;;;;;;12.48;8.80;;;10.30;97.10;;;;;;6215217;23;20018;-81
2022/06/01 06:16:54;;;;;;;13.25;8.57;;;10.30;96.60;;;;;;6213932;23;20017;-81
2022/06/01 06:19:21;;;;;;;12.38;8.82;;;10.40;96.30;;;;;;6213411;23;20059;-80
2022/06/01 06:21:48;;;;;;;13.65;9.88;;;10.50;95.50;;;;;;6212871;23;20012;-80
2022/06/01 06:24:19;;;;;;;16.13;10.85;;;10.60;95.90;;;;;;6210470;23;20025;-80
2022/06/01 06:26:46;;;;;;;11.98;8.25;;;10.70;96.20;;;;;;6210797;23;20025;-80
2022/06/01 06:29:15;;;;;;;10.48;8.27;;;10.70;96.00;;;;;;6212382;23;20085;-81
2022/06/01 06:31:42;;;;;;;12.32;8.80;;;10.80;95.00;;;;;;6209566;23;20029;-80
2022/06/01 06:34:17;;;;;;;11.45;8.23;;;10.90;95.10;;;;;;6210458;23;20014;-80
2022/06/01 06:36:44;;;;;;;14.30;8.45;;;11.00;95.50;;;;;;6210275;23;20026;-80
2022/06/01 06:39:13;;;;;;;11.02;7.32;;;11.10;94.50;;;;;;6212616;23;20017;-80
2022/06/01 06:41:39;;;;;;;11.27;6.40;;;11.20;93.90;;;;;;6212819;23;20058;-80
2022/06/01 06:44:06;;;;;;;11.02;7.25;;;11.30;93.30;;;;;;6237874;23;20022;-80
2022/06/01 06:46:33;;;;;;;12.10;8.07;;;11.40;92.30;;;;;;6212082;23;20024;-80
2022/06/01 06:49:00;;;;;;;12.73;6.57;;;11.40;93.00;;;;;;6212074;23;20593;-80
2022/06/01 06:51:34;;;;;;;13.98;7.72;;;11.50;92.30;;;;;;6212808;23;20022;-80
2022/06/01 06:54:01;;;;;;;9.20;6.20;;;11.60;91.30;;;;;;6213125;23;20025;-80
2022/06/01 06:56:28;;;;;;;10.23;6.55;;;11.70;90.20;;;;;;6210058;23;20096;-80
2022/06/01 06:58:55;;;;;;;12.45;6.35;;;11.80;92.10;;;;;;6211921;23;20026;-80
2022/06/01 07:01:21;;;;;;;9.15;5.28;;;11.80;89.90;;;;;;6207350;23;20716;-80
2022/06/01 07:03:48;;;;;;;9.55;6.03;;;11.90;91.60;;;;;;6208544;23;20749;-80
2022/06/01 07:06:21;;;;;;;8.25;5.40;;;12.00;90.00;;;;;;6231078;23;20041;-80
2022/06/01 07:08:52;;;;;;;10.10;5.07;;;12.10;89.20;;;;;;6206890;23;20792;-80
2022/06/01 07:11:24;;;;;;;7.28;5.00;;;12.10;86.90;;;;;;6208064;23;20790;-80
2022/06/01 07:13:52;;;;;;;13.65;5.63;;;12.20;87.10;;;;;;6230191;23;20025;-80
2022/06/01 07:16:22;;;;;;;9.18;5.30;;;12.30;87.40;;;;;;6205183;23;20026;-80
2022/06/01 07:18:51;;;;;;;8.80;4.85;;;12.40;86.60;;;;;;6206051;23;20026;-80
2022/06/01 07:21:20;;;;;;;10.48;6.20;;;12.60;86.60;;;;;;6205137;23;20026;-80
2022/06/01 07:23:47;;;;;;;7.00;4.90;;;12.80;84.80;;;;;;6204516;23;20021;-80
2022/06/01 07:26:24;;;;;;;8.90;4.28;;;13.10;85.00;;;;;;6205932;23;20022;-80
2022/06/01 07:28:52;;;;;;;6.55;4.07;;;13.50;81.80;;;;;;6205722;23;20025;-81
2022/06/01 07:31:19;;;;;;;8.70;3.85;;;13.50;82.80;;;;;;6203974;23;20006;-80
2022/06/01 07:33:46;;;;;;;7.68;4.05;;;13.50;80.20;;;;;;6200347;23;20026;-81
2022/06/01 07:36:16;;;;;;;6.07;3.65;;;13.60;81.90;;;;;;6199427;23;20024;-81
2022/06/01 07:44:18;;;;;;;5.40;3.85;;;14.90;77.20;;;;;;6195361;23;20029;-81
2022/06/01 07:46:45;;;;;;;5.68;3.38;;;15.20;78.00;;;;;;6198367;23;20025;-81
2022/06/01 07:49:14;;;;;;;7.68;3.55;;;15.40;73.00;;;;;;6202089;23;20029;-81
2022/06/01 07:52:01;;;;;;;6.72;3.05;;;15.40;74.30;;;;;;6204545;23;20029;-80
2022/06/01 07:54:27;;;;;;;5.55;3.20;;;15.50;73.60;;;;;;6203723;23;20762;-81
2022/06/01 07:56:54;;;;;;;4.70;3.13;;;15.60;75.00;;;;;;6204385;23;20065;-81
2022/06/01 07:59:21;;;;;;;6.65;2.80;;;15.90;75.50;;;;;;6206087;23;20014;-81
2022/06/01 08:01:48;;;;;;;3.65;2.33;;;16.10;68.10;;;;;;6206905;23;20026;-80
2022/06/01 08:04:17;;;;;;;4.70;2.50;;;16.10;67.60;;;;;;6204874;23;20081;-81
2022/06/01 08:06:44;;;;;;;5.47;2.20;;;16.30;68.70;;;;;;6206870;23;20017;-81
2022/06/01 08:09:22;;;;;;;3.10;2.08;;;16.30;68.60;;;;;;6204484;23;20549;-81
2022/06/01 08:14:37;;;;;;;4.50;2.35;;;15.80;70.90;;;;;;6202360;23;20090;-81
2022/06/01 08:17:04;;;;;;;4.38;2.30;;;15.60;68.90;;;;;;6203975;23;20032;-80
2022/06/01 08:19:31;;;;;;;5.35;2.50;;;15.20;70.40;;;;;;6232458;23;20022;-80
2022/06/01 08:21:57;;;;;;;5.00;2.40;;;15.10;73.30;;;;;;6210213;23;20097;-81
2022/06/01 08:24:24;;;;;;;4.03;2.20;;;15.40;69.50;;;;;;6206288;23;20021;-80
2022/06/01 08:26:51;;;;;;;10.18;2.40;;;15.40;67.60;;;;;;6204274;23;20363;-80
2022/06/01 08:29:18;;;;;;;5.18;2.35;;;15.30;73.40;;;;;;6202692;23;20039;-80
2022/06/01 08:31:45;;;;;;;4.95;2.10;;;15.20;73.70;;;;;;6204352;23;20777;-80
2022/06/01 08:34:15;;;;;;;3.30;2.45;;;15.00;67.70;;;;;;6203349;23;20021;-80
2022/06/01 08:36:43;;;;;;;3.00;2.08;;;14.90;71.30;;;;;;6202568;23;20885;-80
2022/06/01 08:39:10;;;;;;;3.55;2.25;;;14.80;71.90;;;;;;6203270;23;20022;-80
2022/06/01 08:41:38;;;;;;;3.17;2.20;;;14.70;69.70;;;;;;6202362;23;20767;-80
2022/06/01 08:44:21;;;;;;;5.43;2.30;;;14.80;72.70;;;;;;6202830;23;20014;-80
2022/06/01 08:46:48;;;;;;;3.17;1.90;;;14.90;71.10;;;;;;6231632;23;20026;-80
2022/06/01 08:49:23;;;;;;;2.42;1.92;;;14.80;71.80;;;;;;6204078;23;20186;-80
2022/06/01 08:51:52;;;;;;;3.83;2.00;;;14.80;71.10;;;;;;6204672;23;20029;-81
2022/06/01 08:54:19;;;;;;;4.07;2.50;;;14.80;71.60;;;;;;6201604;23;20049;-80
2022/06/01 08:56:53;;;;;;;3.33;2.20;;;14.80;69.70;;;;;;6206713;23;20486;-80
2022/06/01 08:59:42;;;;;;;3.40;2.42;;;14.90;70.20;;;;;;6202070;23;20013;-80
2022/06/01 09:02:24;;;;;;;3.53;2.20;;;14.80;67.70;;;;;;6202239;23;20025;-80
2022/06/01 09:04:54;;;;;;;3.60;2.30;;;14.90;70.00;;;;;;6203926;23;20025;-80
2022/06/01 09:07:42;;;;;;;3.67;2.22;;;15.30;68.20;;;;;;6206238;23;20013;-81
2022/06/01 09:10:47;;;;;;;3.45;2.17;;;15.80;68.30;;;;;;6204981;23;20021;-80
2022/06/01 09:13:23;;;;;;;3.83;2.35;;;16.10;64.60;;;;;;6202417;23;20017;-81
2022/06/01 09:16:13;;;;;;;5.03;2.30;;;16.70;66.60;;;;;;6201807;23;20017;-81
2022/06/01 09:18:44;;;;;;;3.45;1.98;;;16.90;61.00;;;;;;6201339;23;20069;-81
2022/06/01 09:24:24;;;;;;;3.60;1.70;;;17.40;62.10;;;;;;6198588;23;20010;-80
2022/06/01 09:26:58;;;;;;;5.95;1.70;;;17.40;59.10;;;;;;6195511;23;20021;-81
2022/06/01 09:29:32;;;;;;;3.10;1.70;;;17.40;62.70;;;;;;6196680;23;20014;-81
2022/06/01 09:32:06;;;;;;;3.58;1.70;;;17.90;60.80;;;;;;6193037;23;20841;-81
2022/06/01 09:34:46;;;;;;;3.47;1.63;;;18.40;59.10;;;;;;6193315;23;20029;-81
2022/06/01 09:37:22;;;;;;;3.88;1.50;;;18.30;56.60;;;;;;6194968;23;20025;-81
2022/06/01 09:39:53;;;;;;;3.50;1.70;;;17.70;56.10;;;;;;6191077;23;20737;-81
2022/06/01 09:42:37;;;;;;;1.77;1.35;;;17.40;57.20;;;;;;6194911;23;20026;-81
2022/06/01 09:45:24;;;;;;;4.70;1.77;;;17.60;57.30;;;;;;6194671;23;20030;-81
2022/06/01 09:47:52;;;;;;;5.10;1.52;;;17.80;56.60;;;;;;6188722;23;20101;-81
2022/06/01 09:50:34;;;;;;;2.65;1.40;;;18.20;60.80;;;;;;6193364;23;20021;-81
2022/06/01 09:53:11;;;;;;;3.95;1.40;;;18.40;56.00;;;;;;6192720;23;20033;-81
2022/06/01 09:55:58;;;;;;;3.92;1.30;;;18.40;56.30;;;;;;6196007;23;20026;-81
2022/06/01 10:06:55;;;;;;;2.90;1.60;;;17.70;55.40;;;;;;6193304;23;20033;-81
2022/06/01 10:09:27;;;;;;;3.40;1.30;;;17.10;56.00;;;;;;6192482;23;20045;-81
2022/06/01 10:11:56;;;;;;;3.58;1.50;;;16.80;56.50;;;;;;6192992;23;20029;-81
2022/06/01 10:14:25;;;;;;;1.85;1.27;;;16.70;57.50;;;;;;6189290;23;20045;-80
2022/06/01 10:17:22;;;;;;;6.40;1.42;;;16.80;57.50;;;;;;6189958;23;20033;-80
2022/06/01 10:19:59;;;;;;;3.08;1.30;;;16.90;55.80;;;;;;6189379;23;20064;-81
2022/06/01 10:22:39;;;;;;;4.00;1.38;;;17.00;52.60;;;;;;6194630;23;20725;-80
2022/06/01 10:25:17;;;;;;;2.50;1.25;;;17.00;52.50;;;;;;6194273;23;20041;-80
2022/06/01 10:28:01;;;;;;;2.55;1.10;;;17.20;54.10;;;;;;6196538;23;20017;-80
2022/06/01 10:30:53;;;;;;;2.60;1.45;;;17.20;52.80;;;;;;6195879;23;20021;-80
2022/06/01 10:33:28;;;;;;;2.08;1.02;;;17.30;54.30;;;;;;6197053;23;20125;-80
2022/06/01 10:35:55;;;;;;;1.70;1.20;;;17.60;54.30;;;;;;6191961;23;20025;-81
2022/06/01 10:38:27;;;;;;;1.17;0.98;;;18.00;55.20;;;;;;6188907;23;20025;-81
2022/06/01 10:41:22;;;;;;;1.23;0.90;;;18.00;50.50;;;;;;6185368;23;20109;-81
2022/06/01 10:44:07;;;;;;;1.95;1.00;;;17.90;48.60;;;;;;6184277;23;20028;-81
2022/06/01 10:46:51;;;;;;;1.33;1.00;;;17.70;49.80;;;;;;6186843;23;20030;-81
2022/06/01 10:49:26;;;;;;;3.30;1.00;;;18.20;51.80;;;;;;6185600;23;20033;-81
2022/06/01 10:52:12;;;;;;;1.48;1.00;;;18.80;51.80;;;;;;6186757;23;20033;-81
2022/06/01 10:55:04;;;;;;;1.92;1.00;;;19.10;48.20;;;;;;6186963;23;20742;-81
2022/06/01 10:57:35;;;;;;;4.10;0.95;;;18.60;50.70;;;;;;6209934;22;20943;-81
2022/06/01 11:00:07;;;;;;;1.45;0.93;;;18.10;51.30;;;;;;6187258;23;20494;-81
2022/06/01 11:02:53;;;;;;;1.83;1.00;;;17.80;50.20;;;;;;6186964;23;20036;-81
2022/06/01 11:05:44;;;;;;;1.90;1.00;;;18.10;53.00;;;;;;6187139;23;20033;-81
2022/06/01 11:08:21;;;;;;;1.20;0.80;;;18.60;49.40;;;;;;6186402;23;20029;-81
2022/06/01 11:11:18;;;;;;;4.45;1.10;;;19.10;48.60;;;;;;6186808;23;20029;-81
2022/06/01 11:13:57;;;;;;;2.13;0.98;;;19.00;51.60;;;;;;6187283;23;20104;-81
2022/06/01 11:16:38;;;;;;;4.72;1.20;;;19.40;49.70;;;;;;6186930;23;20025;-81
2022/06/01 11:19:29;;;;;;;2.15;1.05;;;19.00;49.40;;;;;;6186059;23;20037;-81
2022/06/01 11:22:14;;;;;;;4.07;1.00;;;18.30;53.00;;;;;;6186974;23;20029;-81
2022/06/01 11:24:52;;;;;;;3.58;1.17;;;18.00;51.40;;;;;;6189365;23;20737;-81
2022/06/01 11:27:46;;;;;;;1.45;0.90;;;18.00;51.70;;;;;;6188458;23;20109;-81
2022/06/01 11:30:22;;;;;;;1.17;0.93;;;17.90;51.10;;;;;;6188710;23;20136;-82
2022/06/01 11:33:16;;;;;;;1.50;0.90;;;18.30;50.60;;;;;;6184630;23;20502;-82
2022/06/01 11:35:58;;;;;;;1.20;0.85;;;18.60;50.30;;;;;;6186727;23;20818;-81
2022/06/01 11:38:31;;;;;;;1.15;0.90;;;19.10;46.90;;;;;;6188295;23;20025;-81
2022/06/01 11:41:05;;;;;;;0.80;0.65;;;19.40;49.10;;;;;;6189100;23;20056;-81
2022/06/01 11:43:54;;;;;;;1.85;0.88;;;19.70;46.00;;;;;;6187555;23;20534;-81
2022/06/01 11:46:24;;;;;;;1.65;0.70;;;19.70;48.90;;;;;;6188385;23;20021;-81
2022/06/01 11:48:59;;;;;;;1.40;0.63;;;20.30;46.30;;;;;;6187389;23;20081;-81
2022/06/01 11:51:45;;;;;;;1.27;0.70;;;20.10;46.40;;;;;;6189891;23;20493;-81
2022/06/01 11:54:32;;;;;;;0.95;0.65;;;20.00;46.10;;;;;;6190664;23;20033;-81
2022/06/01 11:57:03;;;;;;;2.60;1.00;;;19.50;47.20;;;;;;6192696;23;20072;-81
2022/06/01 11:59:32;;;;;;;2.30;1.20;;;19.10;48.50;;;;;;6196014;23;20032;-81
2022/06/01 12:02:40;;;;;;;3.42;1.00;;;19.00;50.10;;;;;;6189415;23;20101;-81
2022/06/01 12:05:23;;;;;;;1.58;0.90;;;19.00;47.70;;;;;;6189739;23;20025;-81
2022/06/01 12:07:55;;;;;;;1.60;0.85;;;18.60;46.00;;;;;;6189115;23;20471;-80
2022/06/01 12:10:27;;;;;;;6.75;1.15;;;18.40;45.50;;;;;;6213045;23;20036;-81
2022/06/01 12:12:57;;;;;;;2.30;1.27;;;18.10;50.00;;;;;;6189343;23;20460;-81
2022/06/01 12:15:34;;;;;;;1.90;1.15;;;17.70;49.40;;;;;;6212146;23;20463;-81
2022/06/01 12:18:18;;;;;;;4.75;1.45;;;17.30;51.70;;;;;;6189174;23;20029;-80
2022/06/01 12:20:53;;;;;;;2.38;1.38;;;17.10;53.90;;;;;;6189171;23;20717;-80
2022/06/01 12:29:02;;;;;;;1.95;1.30;;;17.80;55.20;;;;;;6186958;23;20737;-81
2022/06/01 12:31:30;;;;;;;1.73;1.15;;;18.50;51.90;;;;;;6188776;23;20026;-81
2022/06/01 12:34:03;;;;;;;2.08;1.20;;;19.20;51.30;;;;;;6187129;23;20025;-81
2022/06/01 12:36:39;;;;;;;3.47;1.40;;;19.80;48.50;;;;;;6210990;23;20755;-81
2022/06/01 12:39:10;;;;;;;1.85;1.45;;;19.70;48.50;;;;;;6186861;23;20036;-81
2022/06/01 12:41:39;;;;;;;1.75;1.30;;;19.50;50.90;;;;;;6187645;23;20053;-80
2022/06/01 12:44:09;;;;;;;2.28;1.55;;;19.80;49.30;;;;;;6187324;23;20029;-81
2022/06/01 12:46:39;;;;;;;2.00;1.33;;;19.60;50.40;;;;;;6188454;23;20029;-81
2022/06/01 12:49:40;;;;;;;2.25;1.48;;;19.50;49.20;;;;;;6184114;23;20489;-81
2022/06/01 12:52:10;;;;;;;3.47;1.60;;;19.30;46.70;;;;;;6186480;23;20033;-81
2022/06/01 12:54:57;;;;;;;1.73;1.10;;;19.10;48.10;;;;;;6186290;23;20805;-81
2022/06/01 12:57:33;;;;;;;2.83;1.30;;;18.80;47.30;;;;;;6185350;23;20030;-81
2022/06/01 13:00:18;;;;;;;2.35;1.00;;;18.70;48.60;;;;;;6187476;23;20836;-81
2022/06/01 13:02:46;;;;;;;3.58;1.45;;;18.70;49.30;;;;;;6186003;23;20100;-81
2022/06/01 13:05:35;;;;;;;3.22;1.50;;;19.10;50.80;;;;;;6184929;23;20029;-81
2022/06/01 13:08:03;;;;;;;4.53;1.60;;;19.10;49.70;;;;;;6186733;23;20056;-81
2022/06/01 13:10:33;;;;;;;3.17;1.80;;;19.00;49.20;;;;;;6186031;23;20485;-81
2022/06/01 13:13:15;;;;;;;2.55;1.70;;;18.30;49.60;;;;;;6186502;23;20029;-81
2022/06/01 13:15:43;;;;;;;3.08;1.80;;;17.80;51.10;;;;;;6186059;23;20053;-81
2022/06/01 13:18:19;;;;;;;4.50;1.83;;;17.80;51.80;;;;;;6185510;23;20033;-81
2022/06/01 13:20:53;;;;;;;2.50;1.90;;;18.00;51.30;;;;;;6187276;23;20497;-81
2022/06/01 13:23:28;;;;;;;2.50;1.58;;;18.00;50.00;;;;;;6185066;23;20813;-80
2022/06/01 13:25:58;;;;;;;3.47;1.88;;;17.80;52.60;;;;;;6208493;23;20033;-81
2022/06/01 13:28:25;;;;;;;2.67;1.73;;;17.80;51.90;;;;;;6187031;23;20765;-81
2022/06/01 13:30:53;;;;;;;2.92;1.38;;;17.70;51.70;;;;;;6185670;23;20018;-82
2022/06/01 13:33:44;;;;;;;3.45;1.55;;;17.80;52.10;;;;;;6185985;23;20022;-80
2022/06/01 13:36:30;;;;;;;5.72;2.30;;;18.30;50.00;;;;;;6181120;23;20025;-81
2022/06/01 13:39:11;;;;;;;3.22;1.80;;;17.80;53.00;;;;;;6186651;23;20036;-80
2022/06/01 13:41:55;;;;;;;3.33;2.00;;;17.60;53.10;;;;;;6186403;23;20032;-80